createdAt,value
2023-02-19T00:01:25.287Z,79.50
2023-02-19T00:03:54.128Z,79.13
2023-02-19T00:06:22.177Z,78.85
2023-02-19T00:08:48.691Z,78.77
2023-02-19T00:11:23.914Z,78.44
2023-02-19T00:13:52.702Z,78.48
2023-02-19T00:16:28.284Z,78.40
2023-02-19T00:18:56.410Z,78.70
2023-02-19T00:21:24.416Z,78.07
2023-02-19T00:23:52.682Z,78.48
2023-02-19T00:26:19.221Z,77.47
2023-02-19T00:28:49.661Z,77.53
2023-02-19T00:31:20.604Z,77.16
2023-02-19T00:33:48.838Z,77.26
2023-02-19T00:36:15.878Z,77.20
2023-02-19T00:38:43.549Z,77.22
2023-02-19T00:41:11.997Z,76.72
2023-02-19T00:43:39.333Z,76.86
2023-02-19T00:46:05.873Z,77.47
2023-02-19T00:48:32.422Z,77.04
2023-02-19T00:50:59.848Z,76.90
2023-02-19T00:53:26.474Z,75.68
2023-02-19T00:55:52.914Z,76.60
2023-02-19T00:58:19.353Z,76.46
2023-02-19T01:00:45.837Z,76.58
2023-02-19T01:03:13.127Z,76.16
2023-02-19T01:05:41.035Z,75.91
2023-02-19T01:08:07.534Z,76.18
2023-02-19T01:10:34.004Z,76.40
2023-02-19T01:13:00.492Z,75.70
2023-02-19T01:15:27.004Z,75.74
2023-02-19T01:17:53.475Z,75.64
2023-02-19T01:20:19.970Z,76.30
2023-02-19T01:22:46.481Z,76.00
2023-02-19T01:25:12.949Z,75.41
2023-02-19T01:27:39.434Z,76.06
2023-02-19T01:30:06.320Z,75.68
2023-02-19T01:32:32.782Z,76.07
2023-02-19T01:34:59.285Z,75.61
2023-02-19T01:37:25.713Z,76.32
2023-02-19T01:39:52.321Z,75.41
2023-02-19T01:42:18.923Z,75.56
2023-02-19T01:44:45.376Z,76.01
2023-02-19T01:47:12.117Z,75.36
2023-02-19T01:49:50.609Z,75.24
2023-02-19T01:52:29.657Z,75.69
2023-02-19T01:54:56.992Z,75.28
2023-02-19T01:57:26.865Z,75.76
2023-02-19T01:59:57.438Z,76.07
2023-02-19T02:02:24.757Z,75.56
2023-02-19T02:04:52.067Z,75.69
2023-02-19T02:07:18.807Z,75.41
2023-02-19T02:09:45.420Z,76.18
2023-02-19T02:12:12.290Z,75.81
2023-02-19T02:14:43.512Z,76.22
2023-02-19T02:17:25.737Z,76.17
2023-02-19T02:20:10.484Z,76.48
2023-02-19T02:22:55.379Z,76.29
2023-02-19T02:25:43.949Z,76.50
2023-02-19T02:28:32.421Z,76.16
2023-02-19T02:31:13.851Z,75.99
2023-02-19T02:34:02.984Z,75.83
2023-02-19T02:36:37.841Z,75.97
2023-02-19T02:39:09.172Z,75.56
2023-02-19T02:41:45.543Z,75.71
2023-02-19T02:44:12.917Z,75.60
2023-02-19T02:46:44.780Z,76.13
2023-02-19T02:49:22.020Z,75.86
2023-02-19T02:51:53.268Z,76.05
2023-02-19T02:54:27.612Z,75.58
2023-02-19T02:56:56.234Z,75.37
2023-02-19T02:59:26.375Z,75.85
2023-02-19T03:02:02.291Z,75.71
2023-02-19T03:04:47.592Z,76.00
2023-02-19T03:07:14.494Z,75.36
2023-02-19T03:09:42.769Z,75.78
2023-02-19T03:12:19.077Z,75.76
2023-02-19T03:14:56.355Z,75.59
2023-02-19T03:17:33.477Z,75.33
2023-02-19T03:20:05.029Z,75.48
2023-02-19T03:22:37.704Z,75.40
2023-02-19T03:25:11.510Z,75.75
2023-02-19T03:27:40.957Z,76.05
2023-02-19T03:30:21.079Z,75.78
2023-02-19T03:32:59.813Z,76.20
2023-02-19T03:35:53.046Z,75.88
2023-02-19T03:38:22.466Z,75.88
2023-02-19T03:41:09.676Z,76.07
2023-02-19T03:44:02.540Z,76.65
2023-02-19T03:46:53.536Z,76.05
2023-02-19T03:49:34.878Z,75.92
2023-02-19T03:52:16.196Z,76.33
2023-02-19T03:55:13.725Z,75.80
2023-02-19T03:57:54.093Z,75.82
2023-02-19T04:00:24.830Z,75.78
2023-02-19T04:03:11.688Z,75.70
2023-02-19T04:05:45.510Z,75.86
2023-02-19T04:08:17.616Z,76.15
2023-02-19T04:10:51.765Z,76.27
2023-02-19T04:13:24.501Z,76.68
2023-02-19T04:15:54.190Z,76.55
2023-02-19T04:18:26.322Z,77.02
2023-02-19T04:20:53.238Z,76.81
2023-02-19T04:23:25.880Z,77.00
2023-02-19T04:25:56.625Z,77.20
2023-02-19T04:28:23.285Z,77.05
2023-02-19T04:30:49.803Z,76.45
2023-02-19T04:33:16.361Z,77.03
2023-02-19T04:35:42.832Z,76.85
2023-02-19T04:38:09.332Z,76.99
2023-02-19T04:40:35.918Z,77.44
2023-02-19T04:43:02.437Z,77.78
2023-02-19T04:45:28.917Z,77.56
2023-02-19T04:47:57.676Z,77.83
2023-02-19T04:50:24.259Z,78.14
2023-02-19T04:52:51.092Z,77.79
2023-02-19T04:55:17.722Z,77.79
2023-02-19T04:57:44.236Z,78.14
2023-02-19T05:00:11.310Z,78.27
2023-02-19T05:02:37.767Z,78.43
2023-02-19T05:05:04.358Z,78.71
2023-02-19T05:07:30.947Z,78.45
2023-02-19T05:09:57.373Z,79.01
2023-02-19T05:12:23.855Z,79.01
2023-02-19T05:14:50.304Z,78.60
2023-02-19T05:17:16.855Z,78.91
2023-02-19T05:19:43.375Z,78.56
2023-02-19T05:22:09.865Z,78.79
2023-02-19T05:24:36.368Z,78.91
2023-02-19T05:27:02.886Z,78.86
2023-02-19T05:29:30.907Z,78.60
2023-02-19T05:31:57.467Z,78.19
2023-02-19T05:34:23.984Z,78.43
2023-02-19T05:36:50.470Z,78.24
2023-02-19T05:39:17.023Z,78.31
2023-02-19T05:41:43.598Z,77.65
2023-02-19T05:44:11.218Z,77.41
2023-02-19T05:46:37.743Z,77.37
2023-02-19T05:49:04.214Z,77.31
2023-02-19T05:51:30.977Z,76.78
2023-02-19T05:53:57.587Z,76.10
2023-02-19T05:56:38.920Z,75.55
2023-02-19T05:59:16.883Z,75.49
2023-02-19T06:01:43.399Z,75.34
2023-02-19T06:04:13.654Z,75.40
2023-02-19T06:06:41.406Z,75.47
2023-02-19T06:09:08.425Z,75.45
2023-02-19T06:11:35.509Z,75.50
2023-02-19T06:14:02.153Z,75.37
2023-02-19T06:16:28.955Z,75.06
2023-02-19T06:18:55.488Z,75.21
2023-02-19T06:21:21.989Z,75.78
2023-02-19T06:23:48.475Z,75.97
2023-02-19T06:26:21.088Z,75.85
2023-02-19T06:28:49.680Z,75.72
2023-02-19T06:31:17.325Z,75.78
2023-02-19T06:33:44.534Z,75.83
2023-02-19T06:36:17.372Z,75.92
2023-02-19T06:38:44.393Z,75.72
2023-02-19T06:41:12.299Z,75.73
2023-02-19T06:43:39.028Z,75.58
2023-02-19T06:46:06.627Z,74.61
2023-02-19T06:48:34.349Z,74.66
2023-02-19T06:51:01.182Z,73.97
2023-02-19T06:53:27.665Z,73.66
2023-02-19T06:56:31.554Z,73.34
2023-02-19T06:59:00.570Z,73.64
2023-02-19T07:01:28.587Z,73.12
2023-02-19T07:03:55.105Z,73.72
2023-02-19T07:06:23.179Z,72.47
2023-02-19T07:08:50.330Z,72.24
2023-02-19T07:11:17.731Z,73.07
2023-02-19T07:13:44.970Z,72.90
2023-02-19T07:16:13.050Z,72.83
2023-02-19T07:18:40.633Z,73.74
2023-02-19T07:21:12.589Z,73.59
2023-02-19T07:23:40.575Z,73.37
2023-02-19T07:26:16.051Z,73.20
2023-02-19T07:28:44.241Z,74.07
2023-02-19T07:31:12.227Z,73.94
2023-02-19T07:33:39.073Z,73.43
2023-02-19T07:36:08.734Z,73.32
2023-02-19T07:38:37.794Z,73.56
2023-02-19T07:41:05.853Z,73.44
2023-02-19T07:43:34.826Z,73.45
2023-02-19T07:46:08.893Z,73.60
2023-02-19T07:48:43.839Z,73.28
2023-02-19T07:51:22.564Z,73.95
2023-02-19T07:54:09.212Z,72.99
2023-02-19T07:56:55.904Z,73.67
2023-02-19T07:59:42.397Z,73.41
2023-02-19T08:02:28.923Z,73.51
2023-02-19T08:05:15.482Z,73.55
2023-02-19T08:08:02.542Z,72.80
2023-02-19T08:10:49.021Z,73.25
2023-02-19T08:13:17.700Z,73.13
2023-02-19T08:15:44.472Z,73.29
2023-02-19T08:18:11.494Z,72.98
2023-02-19T08:20:38.407Z,73.65
2023-02-19T08:23:05.318Z,73.01
2023-02-19T08:25:32.225Z,72.52
2023-02-19T08:28:00.097Z,72.90
2023-02-19T08:30:28.319Z,73.39
2023-02-19T08:32:56.000Z,73.29
2023-02-19T08:35:22.660Z,73.29
2023-02-19T08:37:49.418Z,72.71
2023-02-19T08:40:16.457Z,72.72
2023-02-19T08:42:43.281Z,72.95
2023-02-19T08:45:09.945Z,72.45
2023-02-19T08:47:36.879Z,72.51
2023-02-19T08:50:05.409Z,71.68
2023-02-19T08:52:32.355Z,71.67
2023-02-19T08:54:59.059Z,71.62
2023-02-19T08:57:26.628Z,71.97
2023-02-19T08:59:53.528Z,71.52
2023-02-19T09:02:20.281Z,72.25
2023-02-19T09:04:46.934Z,70.38
2023-02-19T09:07:13.473Z,71.05
2023-02-19T09:09:40.518Z,70.14
2023-02-19T09:12:08.601Z,70.52
2023-02-19T09:14:35.845Z,70.08
2023-02-19T09:17:04.212Z,69.32
2023-02-19T09:19:32.494Z,69.76
2023-02-19T09:21:59.204Z,68.28
2023-02-19T09:24:26.215Z,67.34
2023-02-19T09:26:54.509Z,66.99
2023-02-19T09:29:24.224Z,65.98
2023-02-19T09:31:50.921Z,65.29
2023-02-19T09:34:17.446Z,64.38
2023-02-19T09:36:43.942Z,62.72
2023-02-19T09:39:10.402Z,60.79
2023-02-19T09:41:45.464Z,58.77
2023-02-19T09:44:17.636Z,61.05
2023-02-19T09:46:47.321Z,60.62
2023-02-19T09:49:31.838Z,58.38
2023-02-19T09:52:03.255Z,60.07
2023-02-19T09:54:31.171Z,58.13
2023-02-19T09:57:01.108Z,60.31
2023-02-19T09:59:41.797Z,56.55
2023-02-19T10:02:17.545Z,54.47
2023-02-19T10:04:45.841Z,56.16
2023-02-19T10:07:18.288Z,55.44
2023-02-19T10:09:53.468Z,53.86
2023-02-19T10:12:29.099Z,50.55
2023-02-19T10:15:05.312Z,50.27
2023-02-19T10:17:32.901Z,51.32
2023-02-19T10:19:59.374Z,52.14
2023-02-19T10:22:25.996Z,51.55
2023-02-19T10:24:55.421Z,50.60
2023-02-19T10:27:22.329Z,50.51
2023-02-19T10:29:49.969Z,50.03
2023-02-19T10:32:22.290Z,49.99
2023-02-19T10:35:09.216Z,50.40
2023-02-19T10:37:43.053Z,48.28
2023-02-19T10:40:18.763Z,48.27
2023-02-19T10:42:55.982Z,49.19
2023-02-19T10:45:33.900Z,49.25
2023-02-19T10:48:01.212Z,49.53
2023-02-19T10:50:31.944Z,49.18
2023-02-19T10:53:00.666Z,50.01
2023-02-19T10:55:33.358Z,50.57
2023-02-19T10:58:23.991Z,50.45
2023-02-19T11:01:12.090Z,49.28
2023-02-19T11:03:38.938Z,51.00
2023-02-19T11:06:08.655Z,51.54
2023-02-19T11:08:49.506Z,50.99
2023-02-19T11:11:26.977Z,50.71
2023-02-19T11:13:56.773Z,51.55
2023-02-19T11:16:36.542Z,52.21
2023-02-19T11:19:03.227Z,52.51
2023-02-19T11:21:30.891Z,53.40
2023-02-19T11:23:57.493Z,53.59
2023-02-19T11:26:26.621Z,53.91
2023-02-19T11:29:00.916Z,54.13
2023-02-19T11:31:32.464Z,54.43
2023-02-19T11:34:22.474Z,53.27
2023-02-19T11:37:08.323Z,53.30
2023-02-19T11:39:35.114Z,54.00
2023-02-19T11:42:21.789Z,53.69
2023-02-19T11:45:17.221Z,54.86
2023-02-19T11:48:11.774Z,54.47
2023-02-19T11:50:47.661Z,54.68
2023-02-19T11:53:26.854Z,54.71
2023-02-19T11:56:05.673Z,54.85
2023-02-19T11:59:04.388Z,54.08
2023-02-19T12:02:08.570Z,53.78
2023-02-19T12:05:03.120Z,53.75
2023-02-19T12:07:50.815Z,54.46
2023-02-19T12:10:33.898Z,54.34
2023-02-19T12:13:13.398Z,52.84
2023-02-19T12:15:46.005Z,53.38
2023-02-19T12:18:27.839Z,51.88
2023-02-19T12:21:10.947Z,52.56
2023-02-19T12:23:58.962Z,52.01
2023-02-19T12:26:50.371Z,52.97
2023-02-19T12:29:44.261Z,52.38
2023-02-19T12:32:20.886Z,52.95
2023-02-19T12:35:26.993Z,51.84
2023-02-19T12:37:56.452Z,51.76
2023-02-19T12:41:10.532Z,52.17
2023-02-19T12:43:42.619Z,51.19
2023-02-19T12:46:25.867Z,50.62
2023-02-19T12:48:58.261Z,50.32
2023-02-19T12:51:48.489Z,49.57
2023-02-19T12:54:24.979Z,49.52
2023-02-19T12:57:10.414Z,49.37
2023-02-19T13:00:00.013Z,49.24
2023-02-19T13:02:53.738Z,48.51
2023-02-19T13:05:25.358Z,48.79
2023-02-19T13:08:04.815Z,48.32
2023-02-19T13:10:50.444Z,48.93
2023-02-19T13:13:31.709Z,49.25
2023-02-19T13:16:05.846Z,48.84
2023-02-19T13:18:41.591Z,48.52
2023-02-19T13:21:08.933Z,48.56
2023-02-19T13:23:42.950Z,47.45
2023-02-19T13:26:21.898Z,46.29
2023-02-19T13:28:57.633Z,46.52
2023-02-19T13:31:55.583Z,45.93
2023-02-19T13:34:28.890Z,46.93
2023-02-19T13:36:56.360Z,47.31
2023-02-19T13:39:23.392Z,46.96
2023-02-19T13:41:52.932Z,46.66
2023-02-19T13:44:28.042Z,46.43
2023-02-19T13:46:54.657Z,45.89
2023-02-19T13:49:27.313Z,45.70
2023-02-19T13:52:24.217Z,45.19
2023-02-19T13:54:50.782Z,45.83
2023-02-19T13:57:23.513Z,45.76
2023-02-19T13:59:51.592Z,45.75
2023-02-19T14:02:21.251Z,45.98
2023-02-19T14:04:53.977Z,45.63
2023-02-19T14:07:32.564Z,45.87
2023-02-19T14:09:59.231Z,45.59
2023-02-19T14:12:37.128Z,44.80
2023-02-19T14:15:49.505Z,44.30
2023-02-19T14:18:42.407Z,44.01
2023-02-19T14:21:23.962Z,43.91
2023-02-19T14:23:53.494Z,44.20
2023-02-19T14:26:20.977Z,43.98
2023-02-19T14:28:49.282Z,43.40
2023-02-19T14:31:22.211Z,43.43
2023-02-19T14:33:57.875Z,42.85
2023-02-19T14:36:39.628Z,42.58
2023-02-19T14:39:11.971Z,42.68
2023-02-19T14:41:42.062Z,42.94
2023-02-19T14:44:17.688Z,42.18
2023-02-19T14:46:55.191Z,42.00
2023-02-19T14:49:27.489Z,41.85
2023-02-19T14:52:02.972Z,42.19
2023-02-19T14:54:48.653Z,42.54
2023-02-19T14:57:20.898Z,43.16
2023-02-19T15:00:01.833Z,43.54
2023-02-19T15:02:30.945Z,43.95
2023-02-19T15:04:58.105Z,44.31
2023-02-19T15:07:28.851Z,44.73
2023-02-19T15:10:00.888Z,44.84
2023-02-19T15:12:32.833Z,44.64
2023-02-19T15:15:02.648Z,44.19
2023-02-19T15:17:32.295Z,44.42
2023-02-19T15:20:04.786Z,43.78
2023-02-19T15:22:32.564Z,43.75
2023-02-19T15:25:03.580Z,43.67
2023-02-19T15:27:30.480Z,43.77
2023-02-19T15:29:56.915Z,43.78
2023-02-19T15:32:25.926Z,43.50
2023-02-19T15:35:00.817Z,42.85
2023-02-19T15:37:33.627Z,43.64
2023-02-19T15:40:06.009Z,43.49
2023-02-19T15:42:35.242Z,44.02
2023-02-19T15:45:16.755Z,43.81
2023-02-19T15:47:50.535Z,43.42
2023-02-19T15:50:25.770Z,44.37
2023-02-19T15:53:27.673Z,44.37
2023-02-19T15:56:03.038Z,45.11
2023-02-19T15:58:36.132Z,45.03
2023-02-19T16:01:07.165Z,45.62
2023-02-19T16:03:35.272Z,45.91
2023-02-19T16:06:16.015Z,46.00
2023-02-19T16:08:45.046Z,46.07
2023-02-19T16:11:23.758Z,46.18
2023-02-19T16:13:51.567Z,46.65
2023-02-19T16:16:35.287Z,47.39
2023-02-19T16:19:02.106Z,48.00
2023-02-19T16:21:28.902Z,48.43
2023-02-19T16:24:07.106Z,48.36
2023-02-19T16:26:44.553Z,49.52
2023-02-19T16:29:23.034Z,49.42
2023-02-19T16:31:51.922Z,49.85
2023-02-19T16:34:28.396Z,50.52
2023-02-19T16:36:54.876Z,50.97
2023-02-19T16:39:21.823Z,50.87
2023-02-19T16:41:48.269Z,51.29
2023-02-19T16:44:20.462Z,51.96
2023-02-19T16:46:51.813Z,52.03
2023-02-19T16:49:18.691Z,52.42
2023-02-19T16:51:46.242Z,52.62
2023-02-19T16:54:12.921Z,52.89
2023-02-19T16:56:39.806Z,52.73
2023-02-19T16:59:06.379Z,53.11
2023-02-19T17:01:34.033Z,52.77
2023-02-19T17:04:04.663Z,53.75
2023-02-19T17:06:31.258Z,53.08
2023-02-19T17:08:57.710Z,53.85
2023-02-19T17:11:24.385Z,53.41
2023-02-19T17:13:51.059Z,53.77
2023-02-19T17:16:20.712Z,53.83
2023-02-19T17:18:47.323Z,54.07
2023-02-19T17:21:17.703Z,54.47
2023-02-19T17:23:44.244Z,54.76
2023-02-19T17:26:15.602Z,55.65
2023-02-19T17:28:42.460Z,55.44
2023-02-19T17:31:11.109Z,55.70
2023-02-19T17:33:38.613Z,55.68
2023-02-19T17:36:05.974Z,55.75
2023-02-19T17:38:32.468Z,55.94
2023-02-19T17:40:59.196Z,56.71
2023-02-19T17:43:25.654Z,57.32
2023-02-19T17:45:52.183Z,57.44
2023-02-19T17:48:18.649Z,57.41
2023-02-19T17:50:45.111Z,57.56
2023-02-19T17:53:11.592Z,57.79
2023-02-19T17:55:38.058Z,58.25
2023-02-19T17:58:04.547Z,57.86
2023-02-19T18:00:31.127Z,58.73
2023-02-19T18:02:57.773Z,58.38
2023-02-19T18:05:24.363Z,59.02
2023-02-19T18:07:51.001Z,59.50
2023-02-19T18:10:19.385Z,59.14
2023-02-19T18:12:45.968Z,59.48
2023-02-19T18:15:21.676Z,60.26
2023-02-19T18:17:48.168Z,60.08
2023-02-19T18:20:17.011Z,59.68
2023-02-19T18:22:43.541Z,60.74
2023-02-19T18:25:10.897Z,60.66
2023-02-19T18:27:37.453Z,61.00
2023-02-19T18:30:05.292Z,60.62
2023-02-19T18:32:31.960Z,60.79
2023-02-19T18:34:59.147Z,60.84
2023-02-19T18:37:26.752Z,61.60
2023-02-19T18:39:53.681Z,61.84
2023-02-19T18:42:21.498Z,61.44
2023-02-19T18:44:49.171Z,62.06
2023-02-19T18:47:17.263Z,62.17
2023-02-19T18:49:47.433Z,62.34
2023-02-19T18:52:14.519Z,62.72
2023-02-19T18:54:41.005Z,62.30
2023-02-19T18:57:07.485Z,63.18
2023-02-19T18:59:34.068Z,63.25
2023-02-19T19:02:00.679Z,63.34
2023-02-19T19:04:27.200Z,63.04
2023-02-19T19:06:53.751Z,62.93
2023-02-19T19:09:20.170Z,63.39
2023-02-19T19:11:46.648Z,63.52
2023-02-19T19:14:13.943Z,63.77
2023-02-19T19:16:40.482Z,64.04
2023-02-19T19:19:06.956Z,64.07
2023-02-19T19:21:33.602Z,64.52
2023-02-19T19:24:00.078Z,64.67
2023-02-19T19:26:26.695Z,65.30
2023-02-19T19:28:53.300Z,65.14
2023-02-19T19:31:20.990Z,66.10
2023-02-19T19:33:48.733Z,66.44
2023-02-19T19:36:19.897Z,66.97
2023-02-19T19:38:47.108Z,67.46
2023-02-19T19:41:15.211Z,67.59
2023-02-19T19:43:41.802Z,67.48
2023-02-19T19:46:08.474Z,67.22
2023-02-19T19:48:35.022Z,68.20
2023-02-19T19:51:01.512Z,68.61
2023-02-19T19:53:27.993Z,68.38
2023-02-19T19:55:54.505Z,68.72
2023-02-19T19:58:20.995Z,68.79
2023-02-19T20:00:47.477Z,69.04
2023-02-19T20:03:13.966Z,69.20
2023-02-19T20:05:40.476Z,69.14
2023-02-19T20:08:06.937Z,69.30
2023-02-19T20:10:33.460Z,69.27
2023-02-19T20:12:59.942Z,69.77
2023-02-19T20:15:26.503Z,69.94
2023-02-19T20:17:52.996Z,70.03
2023-02-19T20:20:20.818Z,69.92
2023-02-19T20:22:47.316Z,70.16
2023-02-19T20:25:13.784Z,70.39
2023-02-19T20:27:40.278Z,70.16
2023-02-19T20:30:09.779Z,70.89
2023-02-19T20:32:37.718Z,71.11
2023-02-19T20:35:04.382Z,70.79
2023-02-19T20:37:30.911Z,71.53
2023-02-19T20:39:57.406Z,71.44
2023-02-19T20:42:23.977Z,71.50
2023-02-19T20:44:50.511Z,71.72
2023-02-19T20:47:17.087Z,72.44
2023-02-19T20:49:45.380Z,72.44
2023-02-19T20:52:15.198Z,72.40
2023-02-19T20:54:41.850Z,72.50
2023-02-19T20:57:09.128Z,72.63
2023-02-19T20:59:35.966Z,72.72
2023-02-19T21:02:04.272Z,73.08
2023-02-19T21:04:31.274Z,73.39
2023-02-19T21:06:57.897Z,73.54
2023-02-19T21:09:24.384Z,73.75
2023-02-19T21:11:51.445Z,74.22
2023-02-19T21:14:18.024Z,74.08
2023-02-19T21:16:44.918Z,74.23
2023-02-19T21:19:11.663Z,74.35
2023-02-19T21:21:38.209Z,74.96
2023-02-19T21:24:04.794Z,74.60
2023-02-19T21:26:39.311Z,75.80
2023-02-19T21:29:07.372Z,75.60
2023-02-19T21:31:44.064Z,75.33
2023-02-19T21:34:12.644Z,75.47
2023-02-19T21:36:39.447Z,75.83
2023-02-19T21:39:07.751Z,75.90
2023-02-19T21:41:34.420Z,76.34
2023-02-19T21:44:01.036Z,75.96
2023-02-19T21:46:27.650Z,75.94
2023-02-19T21:48:56.037Z,76.24
2023-02-19T21:51:29.459Z,76.54
2023-02-19T21:53:56.022Z,76.78
2023-02-19T21:56:31.151Z,76.98
2023-02-19T21:58:57.965Z,76.47
2023-02-19T22:01:29.546Z,77.34
2023-02-19T22:03:55.949Z,78.25
2023-02-19T22:06:29.013Z,77.13
2023-02-19T22:08:56.353Z,77.89
2023-02-19T22:11:22.851Z,77.82
2023-02-19T22:13:49.721Z,77.46
2023-02-19T22:16:17.385Z,78.07
2023-02-19T22:18:52.987Z,78.58
2023-02-19T22:21:20.732Z,78.05
2023-02-19T22:23:48.276Z,77.91
2023-02-19T22:26:24.317Z,78.38
2023-02-19T22:28:51.563Z,78.63
2023-02-19T22:31:20.194Z,79.47
2023-02-19T22:33:46.758Z,79.11
2023-02-19T22:36:17.723Z,78.83
2023-02-19T22:38:44.552Z,79.40
2023-02-19T22:41:11.584Z,79.67
2023-02-19T22:43:38.788Z,79.74
2023-02-19T22:46:10.318Z,79.35
2023-02-19T22:48:36.851Z,80.65
2023-02-19T22:51:03.510Z,79.73
2023-02-19T22:53:30.034Z,80.27
2023-02-19T22:55:56.515Z,80.00
2023-02-19T22:58:23.015Z,80.07
2023-02-19T23:00:49.490Z,80.16
2023-02-19T23:03:16.022Z,80.95
2023-02-19T23:05:42.567Z,80.80
2023-02-19T23:08:09.025Z,80.48
2023-02-19T23:10:35.486Z,81.26
2023-02-19T23:13:02.014Z,80.49
2023-02-19T23:15:28.504Z,80.88
2023-02-19T23:17:55.030Z,80.30
2023-02-19T23:20:21.487Z,80.75
2023-02-19T23:22:47.993Z,81.67
2023-02-19T23:25:14.486Z,81.79
2023-02-19T23:27:41.250Z,82.13
2023-02-19T23:30:08.387Z,82.37
2023-02-19T23:32:35.002Z,81.66
2023-02-19T23:35:01.493Z,82.33
2023-02-19T23:37:27.980Z,82.10
2023-02-19T23:39:54.430Z,82.76
2023-02-19T23:42:20.891Z,83.03
2023-02-19T23:44:47.421Z,82.69
2023-02-19T23:47:14.174Z,82.54
2023-02-19T23:49:40.992Z,83.79
2023-02-19T23:52:07.761Z,84.09
2023-02-19T23:54:34.258Z,83.35
2023-02-19T23:57:00.774Z,83.65
2023-02-19T23:59:27.249Z,83.65
